Time;durP1;ratioP1;P1;durP2;ratioP2;P2;SDS_P1;SDS_P2;PMS_P1;PMS_P2;Temp;Humidity;BMP_temperature;BMP_pressure;BME280_temperature;BME280_humidity;BME280_pressure;Samples;Min_cycle;Max_cycle;Signal;HPM_P1;HPM_P2
2021/06/11 00:01:41;;;;;;;5.10;3.60;;;;;;;15.72;100.00;99394.56;10529061;28;20178;-78
2021/06/11 00:07:00;;;;;;;7.00;4.83;;;;;;;15.63;100.00;99395.13;10544227;28;20174;-78
2021/06/11 00:12:19;;;;;;;5.40;3.90;;;;;;;15.57;100.00;99401.59;10543711;28;20197;-77
2021/06/11 00:17:38;;;;;;;4.40;4.00;;;;;;;15.49;100.00;99400.94;10543647;28;20195;-77
2021/06/11 00:22:58;;;;;;;5.27;3.17;;;;;;;15.41;100.00;99402.28;10542297;28;20170;-77
2021/06/11 00:28:17;;;;;;;5.40;4.07;;;;;;;15.33;100.00;99403.63;10543252;28;20174;-77
2021/06/11 00:33:36;;;;;;;5.80;4.00;;;;;;;15.36;100.00;99405.53;10527346;28;20225;-79
2021/06/11 00:38:55;;;;;;;4.53;3.80;;;;;;;15.28;100.00;99398.53;10540533;28;20186;-77
2021/06/11 00:44:14;;;;;;;9.77;5.33;;;;;;;15.26;100.00;99398.19;10527358;28;20178;-77
2021/06/11 00:49:33;;;;;;;4.43;3.90;;;;;;;15.19;100.00;99384.41;10542457;28;20178;-77
2021/06/11 00:54:52;;;;;;;7.13;4.60;;;;;;;15.31;100.00;99386.63;10540505;28;20198;-78
2021/06/11 01:00:12;;;;;;;5.30;4.00;;;;;;;15.04;100.00;99389.84;10542064;28;20170;-76
2021/06/11 01:05:31;;;;;;;10.07;4.20;;;;;;;14.90;100.00;99392.84;10526601;28;20182;-77
2021/06/11 01:10:51;;;;;;;5.13;3.73;;;;;;;14.71;100.00;99393.53;10540338;28;20181;-77
2021/06/11 01:16:10;;;;;;;8.27;4.80;;;;;;;14.73;100.00;99391.13;10525206;28;20206;-78
2021/06/11 01:21:31;;;;;;;3.90;3.07;;;;;;;14.65;100.00;99395.22;10541130;28;20181;-77
2021/06/11 01:26:53;;;;;;;6.30;3.50;;;;;;;14.69;100.00;99393.97;10523647;28;20178;-77
2021/06/11 01:32:15;;;;;;;4.50;3.80;;;;;;;14.64;100.00;99393.66;10524004;28;20723;-77
2021/06/11 01:37:35;;;;;;;5.97;5.33;;;;;;;14.58;100.00;99387.78;10482193;28;20178;-77
2021/06/11 01:42:56;;;;;;;4.50;4.10;;;;;;;14.78;100.00;99399.00;10498571;28;20519;-77
2021/06/11 01:48:17;;;;;;;6.00;4.47;;;;;;;14.62;100.00;99398.81;10483236;28;20187;-78
2021/06/11 01:53:38;;;;;;;8.63;5.40;;;;;;;14.69;100.00;99402.28;10496436;28;20210;-78
2021/06/11 01:58:58;;;;;;;4.70;4.03;;;;;;;14.89;100.00;99396.81;10482839;28;20179;-78
2021/06/11 02:04:19;;;;;;;8.17;5.67;;;;;;;15.06;100.00;99391.00;10497809;28;20170;-77
2021/06/11 02:09:39;;;;;;;6.10;3.93;;;;;;;14.98;100.00;99397.06;10496684;28;20174;-79
2021/06/11 02:15:01;;;;;;;8.23;5.27;;;;;;;14.89;100.00;99396.81;10481991;28;20656;-79
2021/06/11 02:20:23;;;;;;;5.57;4.83;;;;;;;14.86;100.00;99398.44;10497702;28;20175;-79
2021/06/11 02:25:42;;;;;;;7.83;4.97;;;;;;;14.74;100.00;99395.47;10496116;28;20167;-80
2021/06/11 02:31:02;;;;;;;6.77;4.60;;;;;;;14.73;100.00;99402.22;10497279;28;20182;-80
2021/06/11 02:36:21;;;;;;;9.67;6.17;;;;;;;14.54;100.00;99397.34;10532377;28;20217;-80
2021/06/11 02:41:48;;;;;;;5.67;4.80;;;;;;;14.58;100.00;99387.78;10542729;28;20173;-80
2021/06/11 02:47:20;;;;;;;7.87;5.27;;;;;;;14.57;100.00;99390.97;10547449;28;20520;-80
2021/06/11 02:52:54;;;;;;;8.40;4.70;;;;;;;14.64;100.00;99399.19;10530181;28;20561;-80
2021/06/11 02:58:16;;;;;;;9.17;4.60;;;;;;;14.56;100.00;99401.28;10546852;28;20174;-80
2021/06/11 03:03:39;;;;;;;13.10;6.40;;;;;;;14.66;100.00;99394.78;10531529;28;20211;-80
2021/06/11 03:09:00;;;;;;;6.37;5.60;;;;;;;14.47;100.00;99392.72;10545032;28;20178;-80
2021/06/11 03:14:20;;;;;;;4.37;3.97;;;;;;;14.42;100.00;99400.69;10545891;28;20205;-78
2021/06/11 03:19:46;;;;;;;31.57;5.23;;;;;;;14.48;100.00;99399.03;10546039;28;20257;-79
2021/06/11 03:25:10;;;;;;;7.57;5.80;;;;;;;14.48;100.00;99399.81;10529259;28;20170;-79
2021/06/11 03:30:31;;;;;;;5.73;4.50;;;;;;;14.25;100.00;99400.94;10545706;28;20170;-78
2021/06/11 03:35:56;;;;;;;4.83;4.17;;;;;;;14.13;100.00;99404.25;10542705;28;20300;-79
2021/06/11 03:41:17;;;;;;;7.03;4.70;;;;;;;14.16;100.00;99397.91;10541500;28;20261;-78
2021/06/11 03:46:42;;;;;;;6.83;4.57;;;;;;;14.12;100.00;99409.03;10542575;28;20174;-79
2021/06/11 03:52:02;;;;;;;4.87;4.10;;;;;;;14.05;100.00;99395.25;10526632;28;20688;-78
2021/06/11 03:57:26;;;;;;;8.03;5.40;;;;;;;14.17;100.00;99400.25;10542269;28;20174;-78
2021/06/11 04:02:46;;;;;;;7.90;5.10;;;;;;;14.39;100.00;99396.00;10542037;28;20639;-78
2021/06/11 04:08:09;;;;;;;5.47;4.87;;;;;;;14.41;100.00;99388.84;10540855;28;20178;-79
2021/06/11 04:13:48;;;;;;;6.97;5.13;;;;;;;14.40;100.00;99392.81;10541637;28;20288;-78
2021/06/11 04:19:29;;;;;;;5.97;4.50;;;;;;;14.30;100.00;99392.19;10541548;28;20178;-79
2021/06/11 04:24:49;;;;;;;6.67;4.53;;;;;;;14.11;100.00;99401.13;10524725;28;20175;-79
2021/06/11 04:30:09;;;;;;;13.33;6.80;;;;;;;14.00;100.00;99395.69;10541070;28;20182;-77
2021/06/11 04:35:35;;;;;;;9.77;5.80;;;;;;;13.98;100.00;99400.06;10519389;28;116390;-78
2021/06/11 04:40:54;;;;;;;11.43;7.20;;;;;;;14.19;100.00;99397.88;10526114;28;20190;-79
2021/06/11 04:46:13;;;;;;;10.13;6.40;;;;;;;14.42;100.00;99398.69;10542948;28;20565;-79
2021/06/11 04:51:32;;;;;;;8.93;6.20;;;;;;;14.60;100.00;99406.78;10542499;28;20182;-80
2021/06/11 04:56:51;;;;;;;5.80;4.53;;;;;;;14.79;100.00;99415.19;10525630;28;20166;-78
2021/06/11 05:02:10;;;;;;;9.37;6.23;;;;;;;15.02;100.00;99415.19;10541341;28;20597;-79
2021/06/11 05:07:29;;;;;;;10.40;6.40;;;;;;;15.28;100.00;99419.94;10540272;28;20629;-79
2021/06/11 05:12:48;;;;;;;9.97;6.57;;;;;;;15.52;100.00;99422.25;10526052;28;20633;-78
2021/06/11 05:18:08;;;;;;;7.23;5.53;;;;;;;15.72;100.00;99422.28;10540838;28;20224;-79
2021/06/11 05:23:27;;;;;;;5.47;4.97;;;;;;;15.95;100.00;99420.25;10524509;28;20174;-79
2021/06/11 05:28:46;;;;;;;6.97;5.47;;;;;;;16.17;100.00;99421.38;10525437;28;20633;-79
2021/06/11 05:34:05;;;;;;;11.20;5.50;;;;;;;16.38;100.00;99429.31;10539417;28;20226;-79
2021/06/11 05:39:23;;;;;;;6.50;5.10;;;;;;;16.62;100.00;99431.53;10539284;28;20182;-78
2021/06/11 05:44:42;;;;;;;13.80;5.90;;;;;;;16.68;100.00;99421.47;10532223;28;20652;-78
2021/06/11 05:50:02;;;;;;;13.10;6.50;;;;;;;16.87;100.00;99432.56;10540160;28;20170;-79
2021/06/11 05:55:21;;;;;;;5.87;4.90;;;;;;;17.09;100.00;99433.59;10538182;28;20205;-79
2021/06/11 06:00:40;;;;;;;7.57;5.70;;;;;;;17.27;100.00;99439.50;10539861;28;20182;-79
2021/06/11 06:05:59;;;;;;;5.40;4.60;;;;;;;17.45;100.00;99441.88;10539488;28;20257;-79
2021/06/11 06:11:18;;;;;;;7.17;4.97;;;;;;;17.51;100.00;99440.13;10522855;28;20170;-80
2021/06/11 06:16:37;;;;;;;5.57;4.80;;;;;;;17.70;100.00;99440.00;10537853;28;20213;-79
2021/06/11 06:21:56;;;;;;;7.60;5.27;;;;;;;17.93;100.00;99442.56;10524175;28;20242;-79
2021/06/11 06:27:15;;;;;;;9.17;6.30;;;;;;;18.10;100.00;99446.84;10523072;28;20219;-79
2021/06/11 06:32:35;;;;;;;9.10;5.40;;;;;;;18.28;100.00;99430.44;10538872;28;20680;-79
2021/06/11 06:37:54;;;;;;;9.10;5.40;;;;;;;18.37;100.00;99430.56;10537657;28;20178;-79
2021/06/11 06:43:13;;;;;;;7.50;6.17;;;;;;;18.63;100.00;99436.53;10538787;28;20210;-79
2021/06/11 06:48:32;;;;;;;8.00;5.17;;;;;;;18.75;100.00;99438.53;10538741;28;20253;-79
2021/06/11 06:53:52;;;;;;;10.27;7.30;;;;;;;19.19;100.00;99426.41;10536878;28;20669;-80
2021/06/11 06:59:11;;;;;;;13.30;7.23;;;;;;;19.41;100.00;99430.03;10537508;28;20182;-80
2021/06/11 07:04:30;;;;;;;6.53;5.00;;;;;;;19.75;100.00;99432.84;10537360;28;20186;-79
2021/06/11 07:09:49;;;;;;;7.43;5.87;;;;;;;20.18;100.00;99439.28;10521732;28;20644;-80
2021/06/11 07:15:11;;;;;;;11.93;6.00;;;;;;;20.52;100.00;99437.19;10522587;28;20205;-80
2021/06/11 07:20:31;;;;;;;12.30;6.10;;;;;;;20.45;100.00;99426.28;10538173;28;20174;-78
2021/06/11 07:25:50;;;;;;;9.73;7.03;;;;;;;20.64;100.00;99429.94;10523008;28;20197;-78
2021/06/11 07:31:09;;;;;;;8.80;7.20;;;;;;;20.91;100.00;99425.31;10545678;28;20174;-82
2021/06/11 07:36:30;;;;;;;14.10;7.83;;;;;;;21.71;100.00;99433.94;10544797;28;20283;-81
2021/06/11 07:41:51;;;;;;;11.70;7.17;;;;;;;22.25;100.00;99427.56;10528429;28;20559;-78
2021/06/11 07:47:10;;;;;;;12.27;6.77;;;;;;;22.46;100.00;99435.78;10545205;28;20174;-77
2021/06/11 07:52:31;;;;;;;9.90;6.20;;;;;;;22.56;100.00;99428.91;10528133;28;20193;-76
2021/06/11 07:57:50;;;;;;;8.83;5.83;;;;;;;23.26;100.00;99423.53;10529442;28;20177;-77
2021/06/11 08:03:09;;;;;;;8.80;6.73;;;;;;;23.59;100.00;99422.22;10544444;28;20262;-79
2021/06/11 08:08:28;;;;;;;9.73;6.10;;;;;;;24.11;100.00;99415.16;10527615;28;20170;-81
2021/06/11 08:13:47;;;;;;;9.80;7.40;;;;;;;24.02;100.00;99406.78;10535947;28;20209;-79
2021/06/11 08:19:06;;;;;;;8.47;5.40;;;;;;;24.70;100.00;99412.66;10544015;28;20186;-77
2021/06/11 08:24:25;;;;;;;6.90;5.90;;;;;;;25.15;100.00;99409.34;10542263;28;20170;-75
2021/06/11 08:29:44;;;;;;;8.17;5.77;;;;;;;25.65;99.80;99413.59;10543510;28;20257;-80
2021/06/11 08:35:05;;;;;;;8.17;6.47;;;;;;;25.79;97.18;99405.09;10542619;28;20582;-78
2021/06/11 08:40:24;;;;;;;8.07;6.00;;;;;;;26.25;98.99;99403.09;10540500;28;20174;-75
2021/06/11 08:45:45;;;;;;;10.57;5.63;;;;;;;26.69;97.45;99407.91;10542783;28;20178;-78
2021/06/11 08:51:04;;;;;;;7.23;6.00;;;;;;;27.27;86.90;99401.69;10542509;28;20182;-75
2021/06/11 08:56:24;;;;;;;8.20;5.67;;;;;;;27.97;68.45;99402.56;10540421;28;20201;-76
2021/06/11 09:01:44;;;;;;;8.30;5.40;;;;;;;28.58;64.13;99405.06;10541900;28;20170;-75
2021/06/11 09:07:26;;;;;;;7.37;5.80;;;;;;;28.83;65.91;99398.44;10541799;28;20531;-77
2021/06/11 09:12:45;;;;;;;7.00;5.67;;;;;;;29.69;59.88;99393.09;10541401;28;20245;-77
2021/06/11 09:18:19;;;;;;;5.30;4.40;;;;;;;28.40;53.14;99399.91;10540433;28;20174;-79
2021/06/11 09:23:38;;;;;;;5.90;5.40;;;;;;;27.96;57.92;99392.53;10539895;28;20202;-77
2021/06/11 09:29:18;;;;;;;5.70;5.20;;;;;;;28.80;47.65;99390.94;10539910;28;20257;-77
2021/06/11 09:34:37;;;;;;;5.03;4.53;;;;;;;29.59;50.07;99391.88;10540147;28;20254;-78
2021/06/11 09:40:00;;;;;;;5.70;4.67;;;;;;;30.52;48.84;99391.44;10539376;28;20174;-76
2021/06/11 09:45:19;;;;;;;5.40;4.90;;;;;;;30.99;46.76;99390.78;10525067;28;20170;-76
2021/06/11 09:50:39;;;;;;;6.50;5.57;;;;;;;31.32;45.79;99384.78;10524599;28;20606;-75
2021/06/11 09:55:58;;;;;;;5.70;5.20;;;;;;;31.04;46.65;99390.00;10522633;28;20648;-76
2021/06/11 10:01:18;;;;;;;7.23;6.53;;;;;;;28.43;49.08;99393.19;10539864;28;20178;-75
2021/06/11 10:06:37;;;;;;;6.50;5.90;;;;;;;29.51;49.54;99381.56;10539793;28;20174;-75
2021/06/11 10:11:56;;;;;;;7.73;5.50;;;;;;;30.80;41.57;99389.13;10538261;28;20209;-75
2021/06/11 10:17:15;;;;;;;5.80;5.30;;;;;;;31.89;40.95;99384.41;10524232;28;20178;-75
2021/06/11 10:22:34;;;;;;;7.17;6.47;;;;;;;32.01;40.94;99380.88;10522458;28;21005;-75
2021/06/11 10:27:55;;;;;;;5.87;5.43;;;;;;;32.53;40.25;99373.41;10523965;28;20170;-76
2021/06/11 10:33:15;;;;;;;6.37;5.60;;;;;;;31.24;42.18;99368.88;10523196;28;20658;-76
2021/06/11 10:38:35;;;;;;;6.63;6.00;;;;;;;32.06;42.47;99368.69;10536645;28;20178;-75
2021/06/11 10:43:54;;;;;;;5.90;5.40;;;;;;;33.33;43.63;99359.63;10523587;28;20177;-75
2021/06/11 10:49:14;;;;;;;6.57;5.97;;;;;;;31.47;40.04;99370.16;10538945;28;20174;-75
2021/06/11 10:54:32;;;;;;;5.80;5.17;;;;;;;32.48;37.96;99365.72;10521660;28;20241;-75
2021/06/11 10:59:51;;;;;;;5.93;5.50;;;;;;;32.96;37.49;99350.44;10523607;28;20174;-74
2021/06/11 11:05:25;;;;;;;6.23;5.70;;;;;;;30.51;41.62;99358.66;10531493;28;20256;-75
2021/06/11 11:10:53;;;;;;;6.63;6.00;;;;;;;30.13;41.09;99348.28;10545156;28;20248;-74
2021/06/11 11:16:24;;;;;;;6.30;5.70;;;;;;;31.27;44.35;99339.34;10545882;28;20265;-77
2021/06/11 11:21:55;;;;;;;7.47;5.37;;;;;;;29.96;42.25;99329.84;10546041;28;20174;-78
2021/06/11 11:27:14;;;;;;;5.93;5.43;;;;;;;29.52;41.78;99332.09;10544552;28;20170;-78
2021/06/11 11:32:35;;;;;;;8.30;6.20;;;;;;;31.11;38.87;99326.88;10530038;28;20577;-79
2021/06/11 11:37:56;;;;;;;6.90;5.17;;;;;;;33.41;38.78;99304.22;10544061;28;20166;-79
2021/06/11 11:43:15;;;;;;;5.67;5.27;;;;;;;32.26;36.40;99299.03;10530001;28;20256;-78
2021/06/11 11:48:34;;;;;;;7.33;5.87;;;;;;;31.46;37.57;99311.75;10529701;28;20169;-77
2021/06/11 11:53:53;;;;;;;5.43;4.97;;;;;;;30.22;41.45;99301.81;10527925;28;20209;-78
2021/06/11 11:59:12;;;;;;;6.70;5.53;;;;;;;29.61;42.67;99309.09;10544442;28;20175;-79
2021/06/11 12:04:31;;;;;;;5.90;5.40;;;;;;;30.23;42.59;99289.16;10529139;28;20286;-79
2021/06/11 12:09:53;;;;;;;6.30;5.70;;;;;;;31.55;39.76;99289.41;10542930;28;20178;-78
2021/06/11 12:15:13;;;;;;;8.20;5.43;;;;;;;31.90;39.17;99275.75;10543425;28;20229;-77
2021/06/11 12:20:33;;;;;;;6.60;5.53;;;;;;;31.66;37.37;99277.88;10543882;28;20178;-77
2021/06/11 12:25:52;;;;;;;5.50;5.10;;;;;;;31.42;37.64;99289.28;10542150;28;20178;-76
2021/06/11 12:31:11;;;;;;;5.20;4.80;;;;;;;32.88;36.68;99269.72;10543389;28;20170;-79
2021/06/11 12:36:30;;;;;;;5.10;4.77;;;;;;;33.98;33.99;99259.66;10542219;28;20308;-79
2021/06/11 12:41:58;;;;;;;5.47;5.07;;;;;;;31.86;37.16;99257.44;10541762;28;20628;-79
2021/06/11 12:47:16;;;;;;;5.47;5.07;;;;;;;30.70;37.96;99259.34;10542914;28;21338;-79
2021/06/11 12:52:36;;;;;;;4.23;3.93;;;;;;;30.12;36.68;99267.31;10541097;28;20202;-79
2021/06/11 12:57:56;;;;;;;5.10;4.70;;;;;;;31.06;36.06;99253.78;10527103;28;20178;-79
2021/06/11 13:03:15;;;;;;;5.00;4.50;;;;;;;30.65;37.98;99245.97;10526749;28;20190;-78
2021/06/11 13:08:34;;;;;;;5.17;4.77;;;;;;;31.30;36.60;99245.22;10540633;28;20178;-78
2021/06/11 13:13:55;;;;;;;5.50;5.10;;;;;;;31.57;36.31;99246.97;10541230;28;20213;-76
2021/06/11 13:19:14;;;;;;;5.37;4.97;;;;;;;31.45;35.90;99245.56;10541550;28;20181;-79
2021/06/11 13:24:36;;;;;;;5.30;4.80;;;;;;;31.30;35.18;99238.78;10523878;28;20177;-79
2021/06/11 13:29:56;;;;;;;5.43;5.00;;;;;;;31.84;36.22;99226.66;10525915;28;20170;-80
2021/06/11 13:35:15;;;;;;;5.00;4.60;;;;;;;32.57;32.93;99224.97;10540097;28;20221;-78
2021/06/11 13:40:34;;;;;;;4.73;4.37;;;;;;;31.95;33.72;99222.84;10538358;28;20174;-77
2021/06/11 13:45:53;;;;;;;5.43;5.03;;;;;;;30.71;36.22;99215.41;10525198;28;20185;-76
2021/06/11 13:51:12;;;;;;;6.07;4.87;;;;;;;31.06;41.11;99218.91;10540164;28;20182;-76
2021/06/11 13:56:32;;;;;;;5.53;5.03;;;;;;;31.65;35.33;99208.06;10538263;28;20233;-78
2021/06/11 14:01:52;;;;;;;4.67;4.37;;;;;;;31.64;36.78;99203.69;10517578;28;20209;-77
2021/06/11 14:07:11;;;;;;;6.20;5.00;;;;;;;32.45;34.93;99204.44;10524579;28;20253;-77
2021/06/11 14:12:30;;;;;;;5.80;5.30;;;;;;;32.45;36.78;99187.34;10539387;28;20201;-76
2021/06/11 14:18:01;;;;;;;4.73;4.37;;;;;;;30.73;38.46;99198.63;10539544;28;20189;-74
2021/06/11 14:23:20;;;;;;;4.77;4.37;;;;;;;31.17;37.37;99193.22;10522859;28;20178;-77
2021/06/11 14:28:39;;;;;;;7.30;5.50;;;;;;;30.86;39.68;99200.25;10509274;28;20170;-77
2021/06/11 14:33:58;;;;;;;5.00;4.53;;;;;;;30.70;39.46;99196.84;10538979;28;20233;-78
2021/06/11 14:39:17;;;;;;;5.50;5.00;;;;;;;31.47;38.06;99177.50;10546361;28;20182;-76
2021/06/11 14:44:36;;;;;;;5.77;5.17;;;;;;;32.10;35.08;99174.78;10547663;28;20182;-77
2021/06/11 14:49:55;;;;;;;6.50;5.90;;;;;;;31.66;35.85;99178.31;10531922;28;20174;-78
2021/06/11 14:55:15;;;;;;;6.00;5.40;;;;;;;30.30;38.97;99180.69;10545618;28;20205;-77
2021/06/11 15:00:35;;;;;;;5.77;5.27;;;;;;;30.92;42.41;99186.00;10545925;28;20174;-78
2021/06/11 15:05:58;;;;;;;12.90;5.33;;;;;;;31.75;36.25;99175.06;10546737;28;20253;-80
2021/06/11 15:11:17;;;;;;;4.50;4.10;;;;;;;31.50;38.31;99173.59;10545319;28;20170;-79
2021/06/11 15:16:36;;;;;;;5.33;4.93;;;;;;;32.16;35.32;99161.22;10545913;28;20296;-77
2021/06/11 15:21:55;;;;;;;6.07;5.53;;;;;;;31.44;37.49;99158.69;10546193;28;20208;-79
2021/06/11 15:27:14;;;;;;;5.17;4.77;;;;;;;30.80;38.35;99164.69;10543604;28;20257;-77
2021/06/11 15:32:33;;;;;;;8.67;5.13;;;;;;;31.43;37.45;99153.53;10545611;28;20233;-78
2021/06/11 15:37:52;;;;;;;5.50;5.00;;;;;;;32.37;37.18;99145.03;10544380;28;20585;-77
2021/06/11 15:43:11;;;;;;;4.40;4.00;;;;;;;32.44;33.98;99139.47;10545381;28;20190;-79
2021/06/11 15:48:31;;;;;;;5.20;4.70;;;;;;;32.75;33.96;99142.22;10544383;28;20173;-78
2021/06/11 15:53:50;;;;;;;4.10;3.80;;;;;;;32.08;34.94;99138.31;10543447;28;20209;-77
2021/06/11 15:59:09;;;;;;;5.13;4.73;;;;;;;31.08;35.91;99137.47;10544670;28;20182;-77
2021/06/11 16:04:27;;;;;;;4.17;3.87;;;;;;;31.49;35.55;99131.50;10544593;28;20252;-77
2021/06/11 16:09:46;;;;;;;5.57;5.00;;;;;;;32.21;35.47;99132.66;10543082;28;20174;-79
2021/06/11 16:15:07;;;;;;;4.73;4.33;;;;;;;31.15;36.63;99136.13;10528137;28;20219;-78
2021/06/11 16:20:26;;;;;;;7.30;6.60;;;;;;;30.92;37.88;99135.59;10543821;28;20609;-77
2021/06/11 16:25:45;;;;;;;7.20;4.90;;;;;;;30.47;38.94;99145.19;10542272;28;20174;-78
2021/06/11 16:31:06;;;;;;;5.80;5.30;;;;;;;30.25;40.07;99136.88;10543437;28;20182;-78
2021/06/11 16:36:25;;;;;;;5.17;4.67;;;;;;;31.34;38.77;99128.34;10541139;28;20226;-78
2021/06/11 16:41:44;;;;;;;5.77;5.17;;;;;;;31.42;37.41;99123.59;10541901;28;20178;-78
2021/06/11 16:47:03;;;;;;;11.43;7.13;;;;;;;31.22;37.87;99129.81;10541542;28;20174;-80
2021/06/11 16:52:23;;;;;;;26.20;18.10;;;;;;;31.71;38.52;99129.84;10541947;28;20623;-79
2021/06/11 16:57:42;;;;;;;4.30;4.00;;;;;;;32.41;34.40;99114.91;10541561;28;20182;-81
2021/06/11 17:03:01;;;;;;;4.60;4.20;;;;;;;32.43;33.44;99118.00;10542215;28;20185;-80
2021/06/11 17:08:20;;;;;;;4.17;3.87;;;;;;;31.21;37.36;99119.75;10525579;28;20257;-80
2021/06/11 17:13:39;;;;;;;4.10;3.60;;;;;;;30.82;36.10;99116.63;10541457;28;20237;-80
2021/06/11 17:18:58;;;;;;;4.50;4.20;;;;;;;31.34;37.32;99117.75;10541493;28;20294;-81
2021/06/11 17:24:23;;;;;;;3.90;3.60;;;;;;;31.70;36.83;99131.16;10539895;28;20178;-80
2021/06/11 17:29:45;;;;;;;4.20;3.90;;;;;;;32.00;36.68;99123.16;10541053;28;20182;-81
2021/06/11 17:35:08;;;;;;;4.67;4.27;;;;;;;32.41;36.48;99136.94;10540409;28;20229;-81
2021/06/11 17:40:28;;;;;;;4.13;3.73;;;;;;;30.96;37.86;99135.28;10524333;28;20178;-81
2021/06/11 17:45:47;;;;;;;3.80;3.50;;;;;;;29.33;41.38;99136.28;10540689;28;20194;-80
2021/06/11 17:51:10;;;;;;;3.80;3.50;;;;;;;28.50;42.45;99140.75;10540245;28;20253;-81
2021/06/11 17:56:28;;;;;;;3.30;3.00;;;;;;;28.49;43.18;99133.56;10538207;28;20571;-81
2021/06/11 18:02:03;;;;;;;4.27;3.97;;;;;;;28.05;45.28;99137.72;10524609;28;20201;-80
2021/06/11 18:07:23;;;;;;;16.97;12.73;;;;;;;27.78;45.63;99141.34;10539531;28;20166;-79
2021/06/11 18:12:42;;;;;;;6.50;6.00;;;;;;;27.57;47.36;99142.81;10539251;28;20201;-80
2021/06/11 18:18:01;;;;;;;5.87;5.37;;;;;;;27.50;46.38;99140.50;10539596;28;20182;-77
2021/06/11 18:23:29;;;;;;;11.63;10.43;;;;;;;27.15;48.47;99145.81;10538122;28;20174;-77
2021/06/11 18:28:49;;;;;;;10.47;9.50;;;;;;;27.07;48.33;99139.13;10538118;28;20174;-77
2021/06/11 18:34:08;;;;;;;9.70;8.23;;;;;;;27.02;49.81;99139.91;10538845;28;20229;-77
2021/06/11 18:39:28;;;;;;;4.73;4.30;;;;;;;26.90;48.89;99146.75;10522557;28;20265;-77
2021/06/11 18:44:50;;;;;;;4.53;4.10;;;;;;;26.65;48.77;99144.84;10539028;28;20182;-78
2021/06/11 18:50:10;;;;;;;10.07;6.00;;;;;;;26.41;48.85;99149.34;10523517;28;20637;-76
2021/06/11 18:55:31;;;;;;;4.90;4.20;;;;;;;26.19;49.92;99151.22;10536973;28;20205;-78
2021/06/11 19:00:51;;;;;;;4.03;3.73;;;;;;;25.88;53.01;99156.88;10523398;28;20173;-77
2021/06/11 19:06:14;;;;;;;4.17;3.70;;;;;;;25.63;56.09;99157.66;10538495;28;20174;-77
2021/06/11 19:11:39;;;;;;;3.80;3.50;;;;;;;25.41;56.86;99157.47;10522019;28;20583;-77
2021/06/11 19:17:05;;;;;;;4.23;3.87;;;;;;;25.06;57.83;99158.84;10522905;28;20174;-78
2021/06/11 19:22:32;;;;;;;3.93;3.53;;;;;;;24.77;58.50;99161.81;10540030;28;20554;-77
2021/06/11 19:27:53;;;;;;;3.80;3.60;;;;;;;24.55;60.34;99169.19;10546032;28;20170;-77
2021/06/11 19:33:15;;;;;;;4.37;4.07;;;;;;;24.23;61.46;99175.88;10545248;28;20226;-78
2021/06/11 19:38:42;;;;;;;3.57;3.37;;;;;;;23.86;62.96;99174.75;10544406;28;20181;-77
2021/06/11 19:44:02;;;;;;;4.80;3.67;;;;;;;23.60;62.46;99173.75;10545489;28;20629;-77
2021/06/11 19:49:26;;;;;;;5.70;3.40;;;;;;;23.42;63.51;99173.94;10545441;28;20182;-78
2021/06/11 19:54:45;;;;;;;3.83;3.50;;;;;;;23.16;65.84;99183.41;10543387;28;20285;-77
2021/06/11 20:00:13;;;;;;;3.53;3.23;;;;;;;22.89;67.17;99186.44;10529266;28;20651;-77
2021/06/11 20:05:33;;;;;;;3.60;3.30;;;;;;;22.68;69.49;99193.09;10529094;28;20166;-79
2021/06/11 20:10:53;;;;;;;5.57;4.00;;;;;;;22.56;71.41;99196.94;10542900;28;20568;-77
2021/06/11 20:16:13;;;;;;;4.63;4.00;;;;;;;22.19;72.93;99196.78;10543534;28;20205;-77
2021/06/11 20:21:35;;;;;;;3.30;2.90;;;;;;;21.92;74.71;99199.72;10528531;28;20210;-77
2021/06/11 20:26:56;;;;;;;3.80;3.50;;;;;;;21.84;76.20;99202.06;10542353;28;20210;-78
2021/06/11 20:32:15;;;;;;;4.50;4.10;;;;;;;21.74;77.50;99200.53;10542858;28;20173;-78
2021/06/11 20:37:35;;;;;;;5.37;4.43;;;;;;;21.71;78.32;99207.09;10540867;28;20245;-78
2021/06/11 20:43:00;;;;;;;4.20;3.90;;;;;;;21.49;80.08;99207.72;10542989;28;20166;-79
2021/06/11 20:48:19;;;;;;;4.47;3.47;;;;;;;21.43;80.67;99207.59;10527239;28;20249;-78
2021/06/11 20:53:47;;;;;;;6.20;3.90;;;;;;;21.30;83.22;99214.59;10525786;28;20205;-79
2021/06/11 20:59:07;;;;;;;4.43;4.03;;;;;;;21.23;84.95;99214.91;10526624;28;20266;-79
2021/06/11 21:04:25;;;;;;;6.67;4.30;;;;;;;21.10;85.19;99225.47;10526878;28;20547;-78
2021/06/11 21:09:46;;;;;;;4.50;4.10;;;;;;;21.11;85.18;99216.63;10540833;28;20205;-79
2021/06/11 21:15:08;;;;;;;5.20;4.80;;;;;;;21.07;86.25;99215.22;10541390;28;20206;-78
2021/06/11 21:20:27;;;;;;;4.73;4.33;;;;;;;21.07;85.80;99221.59;10541704;28;20170;-79
2021/06/11 21:25:46;;;;;;;4.80;4.07;;;;;;;20.86;88.26;99226.56;10532512;28;20174;-79
2021/06/11 21:31:06;;;;;;;4.63;4.20;;;;;;;20.70;90.90;99230.38;10541246;28;20511;-79
2021/06/11 21:36:25;;;;;;;4.83;4.23;;;;;;;20.58;94.34;99238.88;10524659;28;20313;-79
2021/06/11 21:41:44;;;;;;;3.60;3.30;;;;;;;20.27;100.00;99238.94;10531449;28;20527;-79
2021/06/11 21:47:03;;;;;;;4.60;4.10;;;;;;;20.04;100.00;99241.50;10538994;28;20575;-78
2021/06/11 21:52:23;;;;;;;5.97;4.47;;;;;;;19.98;100.00;99225.78;10539861;28;20197;-79
2021/06/11 21:57:43;;;;;;;5.40;4.40;;;;;;;19.98;100.00;99234.16;10539140;28;20170;-78
2021/06/11 22:03:02;;;;;;;5.00;4.37;;;;;;;19.87;100.00;99237.34;10540050;28;20185;-79
2021/06/11 22:08:22;;;;;;;5.60;4.27;;;;;;;19.76;100.00;99236.19;10538608;28;20201;-79
2021/06/11 22:13:42;;;;;;;4.87;4.37;;;;;;;19.57;100.00;99237.31;10524225;28;20201;-77
2021/06/11 22:19:01;;;;;;;5.23;4.73;;;;;;;19.49;100.00;99234.03;10539559;28;20174;-77
2021/06/11 22:24:20;;;;;;;7.03;5.70;;;;;;;19.50;100.00;99237.56;10538041;28;20178;-76
2021/06/11 22:29:39;;;;;;;5.57;5.03;;;;;;;19.47;100.00;99232.91;10539218;28;20174;-77
2021/06/11 22:34:58;;;;;;;5.13;4.63;;;;;;;19.24;100.00;99238.94;10538420;28;20225;-78
2021/06/11 22:40:17;;;;;;;4.57;4.17;;;;;;;19.05;100.00;99244.78;10522500;28;20537;-77
2021/06/11 22:45:38;;;;;;;5.30;4.80;;;;;;;18.96;100.00;99245.50;10539010;28;20178;-77
2021/06/11 22:50:57;;;;;;;5.43;4.33;;;;;;;18.97;100.00;99255.41;10539124;28;20237;-77
2021/06/11 22:56:17;;;;;;;4.20;3.90;;;;;;;18.76;100.00;99250.56;10537071;28;20578;-77
2021/06/11 23:01:36;;;;;;;4.50;3.93;;;;;;;18.93;100.00;99248.41;10547280;28;20182;-77
2021/06/11 23:06:55;;;;;;;5.50;3.70;;;;;;;18.72;100.00;99246.34;10540671;28;20174;-79
2021/06/11 23:12:14;;;;;;;4.57;3.90;;;;;;;18.43;100.00;99254.84;10545469;28;20178;-80
2021/06/11 23:17:33;;;;;;;4.37;3.50;;;;;;;18.35;100.00;99243.59;10546621;28;20182;-79
2021/06/11 23:22:52;;;;;;;4.40;4.00;;;;;;;18.29;100.00;99240.63;10529716;28;20185;-78
2021/06/11 23:28:11;;;;;;;4.03;3.23;;;;;;;18.22;100.00;99240.06;10546163;28;20625;-78
2021/06/11 23:33:30;;;;;;;4.77;4.10;;;;;;;18.05;100.00;99238.56;10530075;28;20218;-78
2021/06/11 23:38:49;;;;;;;5.20;4.53;;;;;;;18.17;100.00;99235.03;10544539;28;20174;-77
2021/06/11 23:44:08;;;;;;;3.77;3.47;;;;;;;18.02;100.00;99239.44;10530134;28;20174;-78
2021/06/11 23:49:27;;;;;;;3.47;3.20;;;;;;;17.90;100.00;99234.66;10529950;28;20182;-78
2021/06/11 23:54:46;;;;;;;5.77;4.23;;;;;;;17.94;100.00;99238.09;10543347;28;20202;-77
